San Benito, California
Current Conditions -  °F | °C
As of 2:53 PM on Saturday 20 Dec 2014 (Local Time) from KSNS Reporting Station
Overcast Overcast  
Wind Chill: 18°   Ceiling: 10000
Heat Index: 18°   Visibility: 10mi
Dew Point:   Wind: 6mph
Humidity: 58%   Direction: 270°W
Pressure: 30.2"   Gusts: NA
Location:  36.4824°N, 120.948°W
Report Text: KSNS 202253Z 27005KT 10SM OVC100 18/09 A3020 RMK AO2 SLP235 T01780094
Loading
Personal Weather Stations






























Interactive Weather Map New forecast layout! Learn more

10-Day Weather Forecast

Advertisements
Track Severe Weather on mobile